createdAt,value
2019-05-17T00:01:48.021Z,100753.24
2019-05-17T00:04:19.505Z,100755.53
2019-05-17T00:06:50.877Z,100760.48
2019-05-17T00:09:22.175Z,100765.27
2019-05-17T00:11:53.579Z,100755.64
2019-05-17T00:14:26.994Z,100764.40
2019-05-17T00:16:57.830Z,100762.27
2019-05-17T00:19:29.273Z,100757.38
2019-05-17T00:22:00.503Z,100759.33
2019-05-17T00:24:31.870Z,100733.23
2019-05-17T00:27:03.148Z,100744.77
2019-05-17T00:29:37.002Z,100742.49
2019-05-17T00:32:08.145Z,100750.09
2019-05-17T00:34:40.576Z,100738.70
2019-05-17T00:37:11.948Z,100727.77
2019-05-17T00:39:43.256Z,100734.64
2019-05-17T00:42:16.838Z,100732.17
2019-05-17T00:44:47.683Z,100737.17
2019-05-17T00:47:19.137Z,100713.03
2019-05-17T00:49:50.514Z,100715.02
2019-05-17T00:52:21.859Z,100697.98
2019-05-17T00:54:53.277Z,100702.64
2019-05-17T00:57:27.189Z,100713.92
2019-05-17T00:59:57.755Z,100713.99
2019-05-17T01:02:29.098Z,100718.66
2019-05-17T01:05:00.458Z,100721.59
2019-05-17T01:07:31.866Z,100720.94
2019-05-17T01:10:03.297Z,100722.60
2019-05-17T01:12:36.598Z,100724.08
2019-05-17T01:15:08.813Z,100723.42
2019-05-17T01:17:40.151Z,100718.64
2019-05-17T01:20:12.073Z,100716.22
2019-05-17T01:22:43.326Z,100722.27
2019-05-17T01:25:17.153Z,100716.44
2019-05-17T01:27:48.143Z,100710.78
2019-05-17T01:30:19.750Z,100709.97
2019-05-17T01:32:51.329Z,100703.64
2019-05-17T01:35:22.650Z,100703.04
2019-05-17T01:37:56.357Z,100705.23
2019-05-17T01:40:26.806Z,100693.26
2019-05-17T01:42:58.272Z,100696.66
2019-05-17T01:45:29.604Z,100701.89
2019-05-17T01:48:00.934Z,100690.91
2019-05-17T01:50:32.227Z,100691.89
2019-05-17T01:53:03.553Z,100697.98
2019-05-17T01:55:37.189Z,100694.96
2019-05-17T01:58:07.814Z,100699.86
2019-05-17T02:00:39.212Z,100703.20
2019-05-17T02:03:10.694Z,100701.72
2019-05-17T02:05:42.082Z,100699.31
2019-05-17T02:08:14.039Z,100706.61
2019-05-17T02:10:46.610Z,100711.50
2019-05-17T02:13:19.231Z,100710.52
2019-05-17T02:15:50.476Z,100711.36
2019-05-17T02:18:21.787Z,100717.77
2019-05-17T02:20:53.174Z,100718.18
2019-05-17T02:23:27.040Z,100724.36
2019-05-17T02:25:59.727Z,100719.70
2019-05-17T02:28:32.167Z,100714.52
2019-05-17T02:31:03.796Z,100717.05
2019-05-17T02:33:35.144Z,100721.45
2019-05-17T02:36:06.466Z,100721.66
2019-05-17T02:38:37.803Z,100716.81
2019-05-17T02:41:09.119Z,100713.86
2019-05-17T02:43:43.202Z,100711.11
2019-05-17T02:46:13.774Z,100712.45
2019-05-17T02:48:44.988Z,100724.05
2019-05-17T02:51:16.432Z,100721.30
2019-05-17T02:53:47.879Z,100729.08
2019-05-17T02:56:19.329Z,100722.25
2019-05-17T02:58:53.379Z,100743.12
2019-05-17T03:01:24.281Z,100739.01
2019-05-17T03:03:55.718Z,100726.96
2019-05-17T03:06:27.158Z,100730.16
2019-05-17T03:08:58.533Z,100734.26
2019-05-17T03:11:33.000Z,100735.09
2019-05-17T03:14:04.036Z,100730.78
2019-05-17T03:16:35.661Z,100724.52
2019-05-17T03:19:07.105Z,100732.94
2019-05-17T03:21:38.544Z,100736.16
2019-05-17T03:24:13.348Z,100727.66
2019-05-17T03:26:43.236Z,100736.33
2019-05-17T03:29:14.748Z,100730.04
2019-05-17T03:31:53.561Z,100733.13
2019-05-17T03:34:25.763Z,100730.06
2019-05-17T03:36:56.265Z,100733.97
2019-05-17T03:39:26.528Z,100735.25
2019-05-17T03:41:58.131Z,100744.02
2019-05-17T03:44:29.533Z,100748.13
2019-05-17T03:47:02.415Z,100750.31
2019-05-17T03:49:38.511Z,100746.16
2019-05-17T03:52:07.743Z,100746.73
2019-05-17T03:54:39.011Z,100746.59
2019-05-17T03:57:13.249Z,100737.96
2019-05-17T03:59:43.331Z,100738.28
2019-05-17T04:02:14.776Z,100738.95
2019-05-17T04:04:46.125Z,100729.02
2019-05-17T04:07:17.576Z,100727.58
2019-05-17T04:09:48.965Z,100724.41
2019-05-17T04:12:23.185Z,100721.66
2019-05-17T04:14:53.628Z,100712.49
2019-05-17T04:17:25.139Z,100712.49
2019-05-17T04:19:56.425Z,100729.06
2019-05-17T04:22:28.257Z,100724.83
2019-05-17T04:25:02.805Z,100728.02
2019-05-17T04:27:33.306Z,100726.80
2019-05-17T04:30:06.623Z,100738.06
2019-05-17T04:32:37.098Z,100727.95
2019-05-17T04:35:08.153Z,100729.38
2019-05-17T04:37:39.683Z,100730.95
2019-05-17T04:40:14.235Z,100733.44
2019-05-17T04:42:44.869Z,100742.25
2019-05-17T04:45:16.219Z,100744.95
2019-05-17T04:47:47.655Z,100744.58
2019-05-17T04:50:18.948Z,100743.05
2019-05-17T04:52:53.321Z,100747.14
2019-05-17T04:55:23.387Z,100756.94
2019-05-17T04:57:54.970Z,100761.54
2019-05-17T05:00:26.345Z,100769.36
2019-05-17T05:02:58.823Z,100766.11
2019-05-17T05:05:33.086Z,100771.65
2019-05-17T05:08:03.946Z,100764.66
2019-05-17T05:10:38.475Z,100768.78
2019-05-17T05:13:08.308Z,100754.05
2019-05-17T05:15:44.063Z,100759.91
2019-05-17T05:18:14.157Z,100753.53
2019-05-17T05:20:45.491Z,100747.72
2019-05-17T05:23:16.793Z,100750.83
2019-05-17T05:25:48.104Z,100752.81
2019-05-17T05:28:22.360Z,100750.13
2019-05-17T05:30:53.206Z,100748.16
2019-05-17T05:33:24.429Z,100755.63
2019-05-17T05:35:56.915Z,100763.48
2019-05-17T05:38:28.119Z,100755.27
2019-05-17T05:41:01.591Z,100751.42
2019-05-17T05:43:32.909Z,100772.11
2019-05-17T05:46:04.347Z,100750.14
2019-05-17T05:48:35.578Z,100754.22
2019-05-17T05:51:07.109Z,100753.48
2019-05-17T05:53:38.619Z,100753.12
2019-05-17T05:56:13.057Z,100755.84
2019-05-17T05:58:42.993Z,100757.73
2019-05-17T06:01:15.307Z,100754.16
2019-05-17T06:03:46.622Z,100751.07
2019-05-17T06:06:21.414Z,100753.45
2019-05-17T06:08:52.260Z,100753.14
2019-05-17T06:11:23.537Z,100746.01
2019-05-17T06:13:54.841Z,100748.63
2019-05-17T06:16:26.197Z,100755.23
2019-05-17T06:18:57.615Z,100757.62
2019-05-17T06:21:28.918Z,100753.63
2019-05-17T06:24:02.406Z,100751.25
2019-05-17T06:26:33.168Z,100753.38
2019-05-17T06:29:04.497Z,100749.48
2019-05-17T06:31:37.078Z,100758.09
2019-05-17T06:34:08.679Z,100745.79
2019-05-17T06:36:42.274Z,100756.33
2019-05-17T06:39:13.132Z,100756.13
2019-05-17T06:41:44.675Z,100763.99
2019-05-17T06:44:16.018Z,100770.11
2019-05-17T06:46:47.300Z,100761.34
2019-05-17T06:49:18.620Z,100754.02
2019-05-17T06:51:51.626Z,100759.95
2019-05-17T06:54:23.052Z,100756.17
2019-05-17T06:56:54.309Z,100747.56
2019-05-17T06:59:25.751Z,100751.16
2019-05-17T07:01:57.066Z,100757.59
2019-05-17T07:04:29.975Z,100746.11
2019-05-17T07:07:20.701Z,100755.52
2019-05-17T07:09:52.227Z,100750.14
2019-05-17T07:12:23.615Z,100755.23
2019-05-17T07:14:55.712Z,100749.83
2019-05-17T07:17:30.262Z,100753.63
2019-05-17T07:20:00.931Z,100749.72
2019-05-17T07:22:32.368Z,100754.98
2019-05-17T07:25:05.120Z,100753.58
2019-05-17T07:27:41.246Z,100768.75
2019-05-17T07:30:10.930Z,100751.64
2019-05-17T07:32:42.284Z,100745.27
2019-05-17T07:35:13.926Z,100744.97
2019-05-17T07:37:45.279Z,100749.64
2019-05-17T07:40:16.873Z,100747.30
2019-05-17T07:42:50.116Z,100742.37
2019-05-17T07:45:20.757Z,100742.55
2019-05-17T07:47:51.846Z,100746.10
2019-05-17T07:50:23.331Z,100747.28
2019-05-17T07:52:54.837Z,100756.86
2019-05-17T07:55:26.239Z,100745.87
2019-05-17T07:58:00.104Z,100742.97
2019-05-17T08:00:30.574Z,100742.97
2019-05-17T08:03:01.676Z,100740.24
2019-05-17T08:05:33.074Z,100737.55
2019-05-17T08:08:04.379Z,100740.53
2019-05-17T08:10:35.840Z,100740.98
2019-05-17T08:13:25.549Z,100737.05
2019-05-17T08:15:45.091Z,100735.47
2019-05-17T08:18:16.572Z,100740.99
2019-05-17T08:20:50.008Z,100750.54
2019-05-17T08:23:20.397Z,100745.46
2019-05-17T08:25:55.685Z,100737.39
2019-05-17T08:28:27.053Z,100733.55
2019-05-17T08:30:56.822Z,100733.80
2019-05-17T08:33:29.841Z,100736.90
2019-05-17T08:36:01.936Z,100748.55
2019-05-17T08:38:33.179Z,100728.17
2019-05-17T08:41:04.561Z,100732.91
2019-05-17T08:43:43.184Z,100724.19
2019-05-17T08:46:10.545Z,100741.30
2019-05-17T08:48:41.341Z,100733.59
2019-05-17T08:51:12.563Z,100741.03
2019-05-17T08:53:43.864Z,100725.47
2019-05-17T08:56:15.127Z,100723.09
2019-05-17T08:58:46.664Z,100711.50
2019-05-17T09:01:19.628Z,100734.47
2019-05-17T09:03:52.332Z,100712.03
2019-05-17T09:06:23.903Z,100720.72
2019-05-17T09:08:55.357Z,100720.95
2019-05-17T09:11:27.001Z,100729.20
2019-05-17T09:14:01.946Z,100724.42
2019-05-17T09:16:31.479Z,100713.88
2019-05-17T09:19:02.839Z,100708.97
2019-05-17T09:21:34.253Z,100712.40
2019-05-17T09:24:05.737Z,100705.23
2019-05-17T09:26:39.743Z,100715.19
2019-05-17T09:29:10.829Z,100717.60
2019-05-17T09:31:43.368Z,100699.72
2019-05-17T09:34:15.048Z,100704.69
2019-05-17T09:36:49.582Z,100714.63
2019-05-17T09:39:21.196Z,100704.63
2019-05-17T09:41:52.523Z,100698.83
2019-05-17T09:44:24.075Z,100708.31
2019-05-17T09:46:55.464Z,100702.64
2019-05-17T09:49:26.783Z,100696.03
2019-05-17T09:52:00.152Z,100687.50
2019-05-17T09:54:41.665Z,100696.48
2019-05-17T09:57:04.354Z,100684.82
2019-05-17T09:59:35.530Z,100698.68
2019-05-17T10:02:09.445Z,100679.12
2019-05-17T10:04:40.655Z,100682.38
2019-05-17T10:07:12.007Z,100681.84
2019-05-17T10:09:43.601Z,100695.06
2019-05-17T10:12:14.947Z,100693.77
2019-05-17T10:14:46.272Z,100671.02
2019-05-17T10:17:17.625Z,100697.14
2019-05-17T10:19:49.039Z,100677.45
2019-05-17T10:22:20.421Z,100677.62
2019-05-17T10:24:51.944Z,100687.48
2019-05-17T10:27:23.308Z,100678.67
2019-05-17T10:29:54.703Z,100670.21
2019-05-17T10:32:26.178Z,100664.89
2019-05-17T10:35:00.119Z,100667.19
2019-05-17T10:37:30.361Z,100679.22
2019-05-17T10:40:01.724Z,100669.19
2019-05-17T10:42:33.361Z,100663.78
2019-05-17T10:45:07.672Z,100669.19
2019-05-17T10:47:39.595Z,100672.24
2019-05-17T10:50:11.665Z,100665.16
2019-05-17T10:52:43.165Z,100657.59
2019-05-17T10:55:14.671Z,100668.92
2019-05-17T10:57:46.131Z,100663.28
2019-05-17T11:00:19.710Z,100659.50
2019-05-17T11:02:51.314Z,100657.73
2019-05-17T11:05:22.737Z,100653.73
2019-05-17T11:07:54.809Z,100662.22
2019-05-17T11:10:26.293Z,100646.28
2019-05-17T11:12:57.653Z,100652.67
2019-05-17T11:15:29.099Z,100653.86
2019-05-17T11:18:00.531Z,100643.34
2019-05-17T11:20:32.062Z,100644.97
2019-05-17T11:23:03.407Z,100649.44
2019-05-17T11:25:34.825Z,100652.13
2019-05-17T11:28:06.206Z,100644.72
2019-05-17T11:30:37.595Z,100636.34
2019-05-17T11:33:09.126Z,100645.56
2019-05-17T11:35:40.499Z,100633.09
2019-05-17T11:38:11.864Z,100637.29
2019-05-17T11:40:43.164Z,100629.12
2019-05-17T11:43:14.462Z,100630.20
2019-05-17T11:45:47.131Z,100634.42
2019-05-17T11:48:18.680Z,100622.12
2019-05-17T11:50:49.969Z,100641.23
2019-05-17T11:53:21.291Z,100649.31
2019-05-17T11:55:52.644Z,100614.95
2019-05-17T11:58:23.936Z,100650.34
2019-05-17T12:00:55.556Z,100644.81
2019-05-17T12:03:26.760Z,100637.19
2019-05-17T12:06:01.119Z,100629.88
2019-05-17T12:08:32.523Z,100632.77
2019-05-17T12:11:04.192Z,100621.74
2019-05-17T12:13:35.585Z,100629.22
2019-05-17T12:16:07.093Z,100617.11
2019-05-17T12:18:39.904Z,100634.48
2019-05-17T12:21:11.334Z,100621.17
2019-05-17T12:23:42.859Z,100626.06
2019-05-17T12:26:14.413Z,100635.95
2019-05-17T12:28:46.056Z,100620.00
2019-05-17T12:31:17.551Z,100612.15
2019-05-17T12:33:48.993Z,100612.94
2019-05-17T12:36:20.624Z,100617.92
2019-05-17T12:38:52.189Z,100617.64
2019-05-17T12:41:24.955Z,100609.40
2019-05-17T12:43:55.869Z,100617.48
2019-05-17T12:46:26.909Z,100622.91
2019-05-17T12:48:58.392Z,100602.52
2019-05-17T12:51:32.871Z,100600.98
2019-05-17T12:54:03.882Z,100625.36
2019-05-17T12:56:35.253Z,100621.68
2019-05-17T12:59:07.052Z,100619.55
2019-05-17T13:01:38.372Z,100601.52
2019-05-17T13:04:09.707Z,100601.81
2019-05-17T13:06:41.026Z,100596.06
2019-05-17T13:09:12.405Z,100590.72
2019-05-17T13:11:43.907Z,100603.48
2019-05-17T13:14:15.373Z,100595.16
2019-05-17T13:16:46.943Z,100596.10
2019-05-17T13:19:18.393Z,100593.64
2019-05-17T13:21:49.906Z,100598.67
2019-05-17T13:24:21.292Z,100590.48
2019-05-17T13:26:53.030Z,100592.16
2019-05-17T13:29:24.415Z,100599.80
2019-05-17T13:31:55.941Z,100590.96
2019-05-17T13:34:27.505Z,100606.03
2019-05-17T13:36:58.824Z,100599.56
2019-05-17T13:39:30.128Z,100590.37
2019-05-17T13:42:01.583Z,100598.03
2019-05-17T13:44:32.974Z,100594.44
2019-05-17T13:47:04.772Z,100593.23
2019-05-17T13:49:36.182Z,100585.68
2019-05-17T13:52:07.660Z,100586.39
2019-05-17T13:54:39.170Z,100583.61
2019-05-17T13:57:11.541Z,100586.98
2019-05-17T13:59:45.272Z,100587.62
2019-05-17T14:02:17.569Z,100575.77
2019-05-17T14:04:48.820Z,100587.52
2019-05-17T14:07:20.181Z,100579.69
2019-05-17T14:09:51.487Z,100579.97
2019-05-17T14:12:23.046Z,100580.77
2019-05-17T14:14:54.297Z,100577.92
2019-05-17T14:17:25.539Z,100578.99
2019-05-17T14:19:57.093Z,100566.44
2019-05-17T14:22:28.658Z,100587.77
2019-05-17T14:24:59.836Z,100587.75
2019-05-17T14:27:31.146Z,100575.95
2019-05-17T14:30:02.490Z,100571.53
2019-05-17T14:32:33.952Z,100565.13
2019-05-17T14:35:06.239Z,100567.12
2019-05-17T14:37:37.543Z,100556.32
2019-05-17T14:40:08.856Z,100590.03
2019-05-17T14:42:40.109Z,100574.61
2019-05-17T14:45:11.797Z,100571.88
2019-05-17T14:47:44.083Z,100563.45
2019-05-17T14:50:15.632Z,100564.34
2019-05-17T14:52:46.877Z,100547.39
2019-05-17T14:55:19.235Z,100549.90
2019-05-17T14:57:50.473Z,100550.80
2019-05-17T15:00:21.791Z,100547.72
2019-05-17T15:02:53.094Z,100562.74
2019-05-17T15:05:24.431Z,100557.16
2019-05-17T15:07:56.108Z,100545.69
2019-05-17T15:10:27.462Z,100548.29
2019-05-17T15:13:01.554Z,100533.86
2019-05-17T15:15:31.201Z,100548.91
2019-05-17T15:18:02.757Z,100549.09
2019-05-17T15:20:34.228Z,100535.15
2019-05-17T15:23:05.737Z,100532.92
2019-05-17T15:25:37.092Z,100530.65
2019-05-17T15:28:08.446Z,100545.95
2019-05-17T15:30:39.907Z,100529.78
2019-05-17T15:33:12.406Z,100535.13
2019-05-17T15:35:43.695Z,100526.69
2019-05-17T15:38:15.092Z,100523.62
2019-05-17T15:40:46.534Z,100524.73
2019-05-17T15:43:17.894Z,100517.69
2019-05-17T15:45:49.311Z,100518.83
2019-05-17T15:48:20.747Z,100551.12
2019-05-17T15:50:52.113Z,100532.31
2019-05-17T15:53:23.421Z,100536.41
2019-05-17T15:55:54.766Z,100523.57
2019-05-17T15:58:26.222Z,100528.27
2019-05-17T16:00:57.647Z,100517.58
2019-05-17T16:03:29.129Z,100528.07
2019-05-17T16:06:00.637Z,100535.52
2019-05-17T16:08:31.974Z,100533.51
2019-05-17T16:11:03.311Z,100522.55
2019-05-17T16:13:34.665Z,100528.92
2019-05-17T16:16:06.034Z,100528.27
2019-05-17T16:18:38.538Z,100527.71
2019-05-17T16:21:09.947Z,100531.52
2019-05-17T16:23:41.320Z,100531.79
2019-05-17T16:26:12.624Z,100535.84
2019-05-17T16:28:43.943Z,100530.25
2019-05-17T16:31:15.387Z,100546.63
2019-05-17T16:33:46.894Z,100537.10
2019-05-17T16:36:18.348Z,100522.73
2019-05-17T16:38:49.729Z,100536.59
2019-05-17T16:41:22.170Z,100540.45
2019-05-17T16:43:53.342Z,100533.77
2019-05-17T16:46:24.947Z,100543.66
2019-05-17T16:48:56.390Z,100539.70
2019-05-17T16:51:27.956Z,100541.06
2019-05-17T16:54:00.442Z,100542.36
2019-05-17T16:56:31.907Z,100539.28
2019-05-17T16:59:03.263Z,100549.20
2019-05-17T17:01:34.814Z,100542.69
2019-05-17T17:04:06.220Z,100533.80
2019-05-17T17:06:37.850Z,100563.64
2019-05-17T17:09:09.327Z,100541.20
2019-05-17T17:11:40.803Z,100539.13
2019-05-17T17:14:12.253Z,100539.89
2019-05-17T17:16:43.619Z,100554.82
2019-05-17T17:19:15.016Z,100551.94
2019-05-17T17:21:46.324Z,100566.64
2019-05-17T17:24:17.868Z,100548.23
2019-05-17T17:26:49.245Z,100535.13
2019-05-17T17:29:20.787Z,100532.25
2019-05-17T17:31:52.141Z,100535.03
2019-05-17T17:34:23.475Z,100562.53
2019-05-17T17:36:55.078Z,100565.31
2019-05-17T17:39:26.380Z,100537.34
2019-05-17T17:41:57.811Z,100545.67
2019-05-17T17:44:29.177Z,100536.73
2019-05-17T17:47:00.654Z,100540.89
2019-05-17T17:49:31.995Z,100535.00
2019-05-17T17:52:03.423Z,100539.59
2019-05-17T17:54:34.770Z,100549.20
2019-05-17T17:57:06.226Z,100546.38
2019-05-17T17:59:37.661Z,100545.97
2019-05-17T18:02:09.215Z,100550.36
2019-05-17T18:04:40.393Z,100543.91
2019-05-17T18:07:11.772Z,100534.52
2019-05-17T18:09:43.099Z,100536.20
2019-05-17T18:12:14.429Z,100544.15
2019-05-17T18:14:45.857Z,100561.11
2019-05-17T18:17:17.205Z,100538.30
2019-05-17T18:19:48.680Z,100569.63
2019-05-17T18:22:20.108Z,100551.19
2019-05-17T18:24:51.553Z,100552.28
2019-05-17T18:27:23.038Z,100533.25
2019-05-17T18:29:54.503Z,100552.56
2019-05-17T18:32:25.805Z,100546.36
2019-05-17T18:34:57.113Z,100551.95
2019-05-17T18:37:28.575Z,100564.62
2019-05-17T18:40:00.045Z,100561.98
2019-05-17T18:42:32.065Z,100576.50
2019-05-17T18:45:04.229Z,100550.78
2019-05-17T18:47:35.574Z,100568.03
2019-05-17T18:50:07.506Z,100552.65
2019-05-17T18:52:39.113Z,100569.02
2019-05-17T18:55:11.271Z,100562.61
2019-05-17T18:57:42.764Z,100546.14
2019-05-17T19:00:15.267Z,100552.20
2019-05-17T19:02:46.741Z,100551.67
2019-05-17T19:05:18.156Z,100559.59
2019-05-17T19:07:49.620Z,100558.31
2019-05-17T19:10:21.128Z,100561.12
2019-05-17T19:12:52.497Z,100555.30
2019-05-17T19:15:24.085Z,100567.75
2019-05-17T19:17:55.438Z,100560.92
2019-05-17T19:20:26.931Z,100563.39
2019-05-17T19:22:58.622Z,100559.34
2019-05-17T19:25:29.975Z,100564.72
2019-05-17T19:28:01.560Z,100560.25
2019-05-17T19:30:33.048Z,100563.48
2019-05-17T19:33:04.574Z,100560.57
2019-05-17T19:35:35.799Z,100559.80
2019-05-17T19:38:07.109Z,100563.66
2019-05-17T19:40:38.441Z,100571.30
2019-05-17T19:43:09.917Z,100568.47
2019-05-17T19:45:41.799Z,100566.22
2019-05-17T19:48:14.286Z,100554.77
2019-05-17T19:50:45.748Z,100553.84
2019-05-17T19:53:17.076Z,100555.42
2019-05-17T19:55:48.377Z,100570.81
2019-05-17T19:58:19.913Z,100561.73
2019-05-17T20:00:51.316Z,100567.52
2019-05-17T20:03:22.825Z,100554.22
2019-05-17T20:05:54.174Z,100575.75
2019-05-17T20:08:26.761Z,100560.25
2019-05-17T20:10:58.151Z,100572.70
2019-05-17T20:13:29.616Z,100566.03
2019-05-17T20:16:01.154Z,100580.27
2019-05-17T20:18:32.837Z,100587.49
2019-05-17T20:21:04.386Z,100581.27
2019-05-17T20:23:36.759Z,100572.75
2019-05-17T20:26:08.237Z,100584.89
2019-05-17T20:28:39.739Z,100585.90
2019-05-17T20:31:11.136Z,100577.70
2019-05-17T20:33:42.664Z,100601.16
2019-05-17T20:36:14.109Z,100585.25
2019-05-17T20:38:45.387Z,100603.52
2019-05-17T20:41:16.976Z,100600.17
2019-05-17T20:43:48.925Z,100596.54
2019-05-17T20:46:20.544Z,100594.53
2019-05-17T20:48:52.076Z,100585.09
2019-05-17T20:51:24.553Z,100593.33
2019-05-17T20:53:55.922Z,100587.06
2019-05-17T20:56:32.844Z,100593.77
2019-05-17T20:59:00.030Z,100580.09
2019-05-17T21:01:31.072Z,100596.43
2019-05-17T21:04:02.360Z,100589.30
2019-05-17T21:06:33.673Z,100577.31
2019-05-17T21:09:06.697Z,100581.83
2019-05-17T21:11:37.869Z,100577.74
2019-05-17T21:14:09.139Z,100578.95
2019-05-17T21:16:40.447Z,100588.73
2019-05-17T21:19:11.651Z,100589.06
2019-05-17T21:21:43.126Z,100580.20
2019-05-17T21:24:14.317Z,100590.48
2019-05-17T21:26:45.665Z,100585.55
2019-05-17T21:29:16.863Z,100577.57
2019-05-17T21:31:48.067Z,100591.91
2019-05-17T21:34:19.369Z,100574.40
2019-05-17T21:36:51.729Z,100576.77
2019-05-17T21:39:23.024Z,100575.70
2019-05-17T21:41:54.235Z,100579.27
2019-05-17T21:44:25.459Z,100589.37
2019-05-17T21:47:04.588Z,100581.13
2019-05-17T21:49:30.949Z,100593.72
2019-05-17T21:52:02.247Z,100584.49
2019-05-17T21:54:33.613Z,100585.87
2019-05-17T21:57:05.011Z,100564.22
2019-05-17T21:59:36.204Z,100578.30
2019-05-17T22:02:07.617Z,100569.00
2019-05-17T22:04:39.102Z,100568.16
2019-05-17T22:07:10.681Z,100566.00
2019-05-17T22:09:42.135Z,100559.06
2019-05-17T22:12:14.697Z,100559.69
2019-05-17T22:14:45.902Z,100558.86
2019-05-17T22:17:17.257Z,100552.64
2019-05-17T22:19:48.601Z,100557.60
2019-05-17T22:22:19.904Z,100551.14
2019-05-17T22:24:51.149Z,100559.10
2019-05-17T22:27:22.614Z,100565.84
2019-05-17T22:29:53.902Z,100554.20
2019-05-17T22:32:25.314Z,100566.39
2019-05-17T22:34:56.686Z,100568.00
2019-05-17T22:37:28.197Z,100581.39
2019-05-17T22:39:59.498Z,100583.60
2019-05-17T22:42:30.909Z,100570.39
2019-05-17T22:45:02.155Z,100570.06
2019-05-17T22:47:34.747Z,100557.14
2019-05-17T22:50:06.449Z,100574.12
2019-05-17T22:52:37.843Z,100565.53
2019-05-17T22:55:09.770Z,100566.91
2019-05-17T22:57:41.245Z,100554.02
2019-05-17T23:00:13.144Z,100561.97
2019-05-17T23:02:45.030Z,100556.02
2019-05-17T23:05:16.411Z,100575.95
2019-05-17T23:07:47.817Z,100549.30
2019-05-17T23:10:19.152Z,100555.95
2019-05-17T23:12:51.439Z,100548.48
2019-05-17T23:15:22.871Z,100546.90
2019-05-17T23:17:54.092Z,100544.69
2019-05-17T23:20:25.418Z,100551.03
2019-05-17T23:22:56.926Z,100540.10
2019-05-17T23:25:28.389Z,100540.02
2019-05-17T23:27:59.583Z,100541.94
2019-05-17T23:30:30.800Z,100563.45
2019-05-17T23:33:02.251Z,100551.30
2019-05-17T23:35:33.417Z,100546.94
2019-05-17T23:38:04.619Z,100546.53
2019-05-17T23:40:35.796Z,100544.52
2019-05-17T23:43:07.116Z,100542.94
2019-05-17T23:45:38.371Z,100542.41
2019-05-17T23:48:09.665Z,100548.98
2019-05-17T23:50:41.153Z,100550.17
2019-05-17T23:53:12.343Z,100541.59
2019-05-17T23:55:43.470Z,100549.63
2019-05-17T23:58:15.917Z,100538.42
